createdAt,value
2022-08-03T00:00:39.953Z,99964.91
2022-08-03T00:03:08.372Z,99957.16
2022-08-03T00:05:37.890Z,99962.53
2022-08-03T00:08:07.050Z,99961.56
2022-08-03T00:10:38.297Z,99965.16
2022-08-03T00:13:06.790Z,99960.97
2022-08-03T00:15:35.622Z,99962.78
2022-08-03T00:18:05.522Z,99949.34
2022-08-03T00:20:34.200Z,99953.63
2022-08-03T00:23:02.680Z,99957.94
2022-08-03T00:25:31.430Z,99952.69
2022-08-03T00:27:59.855Z,99956.28
2022-08-03T00:30:37.811Z,99959.50
2022-08-03T00:33:11.031Z,99950.63
2022-08-03T00:35:52.350Z,99953.38
2022-08-03T00:38:39.120Z,99947.44
2022-08-03T00:41:27.471Z,99943.81
2022-08-03T00:44:33.772Z,99942.28
2022-08-03T00:47:30.331Z,99944.91
2022-08-03T00:50:01.351Z,99940.63
2022-08-03T00:52:38.692Z,99939.78
2022-08-03T00:55:09.920Z,99940.47
2022-08-03T00:57:41.594Z,99940.75
2022-08-03T01:00:13.490Z,99938.09
2022-08-03T01:06:09.660Z,99941.72
2022-08-03T01:08:54.381Z,99943.53
2022-08-03T01:11:59.835Z,99944.34
2022-08-03T01:14:34.646Z,99934.91
2022-08-03T01:17:12.682Z,99933.25
2022-08-03T01:19:53.260Z,99934.09
2022-08-03T01:22:53.851Z,99934.09
2022-08-03T01:25:36.542Z,99928.13
2022-08-03T01:28:30.335Z,99930.47
2022-08-03T01:31:06.621Z,99934.78
2022-08-03T01:33:40.845Z,99926.19
2022-08-03T01:36:14.271Z,99926.03
2022-08-03T01:38:46.282Z,99923.81
2022-08-03T01:41:20.270Z,99926.19
2022-08-03T01:44:26.863Z,99926.06
2022-08-03T01:46:48.783Z,99934.09
2022-08-03T01:49:18.741Z,99940.88
2022-08-03T01:52:03.655Z,99943.53
2022-08-03T01:54:36.346Z,99946.84
2022-08-03T01:57:05.521Z,99959.00
2022-08-03T01:59:37.251Z,99955.41
2022-08-03T02:02:15.495Z,99961.66
2022-08-03T02:05:00.435Z,99963.44
2022-08-03T02:07:30.643Z,99953.03
2022-08-03T02:10:00.999Z,99967.19
2022-08-03T02:12:31.312Z,99959.28
2022-08-03T02:15:01.793Z,99952.38
2022-08-03T02:17:39.466Z,99949.81
2022-08-03T02:20:10.553Z,99954.00
2022-08-03T02:22:41.489Z,99952.59
2022-08-03T02:25:11.436Z,99950.22
2022-08-03T02:27:44.470Z,99940.66
2022-08-03T02:30:14.999Z,99938.16
2022-08-03T02:32:50.114Z,99936.34
2022-08-03T02:35:20.420Z,99928.84
2022-08-03T02:37:53.485Z,99929.00
2022-08-03T02:40:24.442Z,99924.72
2022-08-03T02:42:59.049Z,99929.41
2022-08-03T02:45:29.264Z,99936.69
2022-08-03T02:48:04.319Z,99932.28
2022-08-03T02:50:35.354Z,99936.03
2022-08-03T02:53:04.670Z,99936.97
2022-08-03T02:55:36.589Z,99943.91
2022-08-03T02:58:14.789Z,99943.91
2022-08-03T03:00:46.215Z,99946.66
2022-08-03T03:03:16.980Z,99944.16
2022-08-03T03:05:53.596Z,99937.38
2022-08-03T03:08:29.017Z,99937.38
2022-08-03T03:10:59.648Z,99938.47
2022-08-03T03:13:30.196Z,99938.34
2022-08-03T03:16:01.394Z,99949.81
2022-08-03T03:18:33.561Z,99947.44
2022-08-03T03:21:04.292Z,99945.53
2022-08-03T03:23:36.740Z,99953.56
2022-08-03T03:26:06.078Z,99943.88
2022-08-03T03:28:37.141Z,99953.56
2022-08-03T03:31:07.464Z,99955.31
2022-08-03T03:33:38.819Z,99954.66
2022-08-03T03:36:09.939Z,99960.72
2022-08-03T03:38:38.459Z,99961.69
2022-08-03T03:41:07.239Z,99962.66
2022-08-03T03:43:35.839Z,99959.06
2022-08-03T03:46:05.108Z,99961.81
2022-08-03T03:48:33.612Z,99961.81
2022-08-03T03:51:04.639Z,99962.66
2022-08-03T03:53:33.142Z,99964.84
2022-08-03T03:56:02.517Z,99961.09
2022-08-03T03:58:32.575Z,99968.16
2022-08-03T04:01:01.433Z,99968.31
2022-08-03T04:03:29.952Z,99953.47
2022-08-03T04:06:16.444Z,99974.66
2022-08-03T04:09:15.519Z,99979.91
2022-08-03T04:11:49.138Z,99986.16
2022-08-03T04:14:21.329Z,99989.72
2022-08-03T04:16:53.638Z,99990.69
2022-08-03T04:19:29.479Z,99990.94
2022-08-03T04:22:01.598Z,99999.66
2022-08-03T04:24:36.658Z,99998.97
2022-08-03T04:27:08.758Z,100006.56
2022-08-03T04:29:48.114Z,100002.19
2022-08-03T04:32:18.553Z,99996.91
2022-08-03T04:34:47.505Z,100004.09
2022-08-03T04:37:20.390Z,100004.25
2022-08-03T04:39:52.556Z,100006.97
2022-08-03T04:42:26.029Z,100002.69
2022-08-03T04:45:01.109Z,100002.69
2022-08-03T04:47:32.540Z,100001.16
2022-08-03T04:50:02.728Z,100003.78
2022-08-03T04:52:31.728Z,99996.59
2022-08-03T04:55:01.644Z,99993.97
2022-08-03T04:57:30.069Z,100009.03
2022-08-03T05:00:03.210Z,100009.75
2022-08-03T05:02:33.054Z,100010.69
2022-08-03T05:05:01.730Z,100004.59
2022-08-03T05:07:35.547Z,100007.94
2022-08-03T05:10:14.753Z,100015.94
2022-08-03T05:12:46.201Z,100007.81
2022-08-03T05:15:15.421Z,100012.22
2022-08-03T05:17:43.818Z,100003.53
2022-08-03T05:20:13.208Z,100017.50
2022-08-03T05:22:44.988Z,100015.00
2022-08-03T05:25:17.312Z,100021.22
2022-08-03T05:27:48.413Z,100024.66
2022-08-03T05:30:26.758Z,100017.88
2022-08-03T05:33:01.498Z,100031.16
2022-08-03T05:36:01.622Z,100025.63
2022-08-03T05:38:20.866Z,100031.88
2022-08-03T05:41:21.124Z,100028.53
2022-08-03T05:43:46.990Z,100036.41
2022-08-03T05:46:15.655Z,100036.03
2022-08-03T05:48:44.442Z,100028.97
2022-08-03T05:51:13.738Z,100040.31
2022-08-03T05:53:42.947Z,100042.25
2022-08-03T05:56:15.689Z,100036.16
2022-08-03T05:58:46.306Z,100036.97
2022-08-03T06:01:15.149Z,100037.56
2022-08-03T06:03:43.654Z,100047.97
2022-08-03T06:06:12.238Z,100054.06
2022-08-03T06:08:40.791Z,100051.56
2022-08-03T06:11:09.934Z,100062.91
2022-08-03T06:13:40.723Z,100057.41
2022-08-03T06:16:09.155Z,100061.69
2022-08-03T06:18:37.910Z,100054.78
2022-08-03T06:21:14.979Z,100057.84
2022-08-03T06:23:54.109Z,100060.34
2022-08-03T06:26:28.981Z,100067.28
2022-08-03T06:28:59.296Z,100055.09
2022-08-03T06:31:32.356Z,100055.91
2022-08-03T06:34:33.441Z,100068.09
2022-08-03T06:36:58.473Z,100067.16
2022-08-03T06:39:30.816Z,100073.09
2022-08-03T06:41:59.530Z,100080.88
2022-08-03T06:44:29.362Z,100076.38
2022-08-03T06:46:58.841Z,100081.75
2022-08-03T06:49:28.011Z,100080.66
2022-08-03T06:52:04.186Z,100085.47
2022-08-03T06:54:41.212Z,100077.25
2022-08-03T06:57:13.360Z,100071.50
2022-08-03T07:00:07.973Z,100071.38
2022-08-03T07:02:33.035Z,100073.09
2022-08-03T07:05:01.895Z,100071.38
2022-08-03T07:07:30.307Z,100073.88
2022-08-03T07:09:58.905Z,100070.19
2022-08-03T07:12:35.328Z,100069.66
2022-08-03T07:15:06.966Z,100070.50
2022-08-03T07:17:36.890Z,100078.97
2022-08-03T07:20:08.913Z,100083.81
2022-08-03T07:22:38.065Z,100081.06
2022-08-03T07:25:07.418Z,100088.75
2022-08-03T07:27:35.920Z,100086.34
2022-08-03T07:30:09.685Z,100084.28
2022-08-03T07:32:49.752Z,100079.84
2022-08-03T07:35:24.924Z,100083.31
2022-08-03T07:37:54.226Z,100089.78
2022-08-03T07:40:23.708Z,100084.31
2022-08-03T07:42:56.605Z,100090.50
2022-08-03T07:45:26.993Z,100094.31
2022-08-03T07:47:55.664Z,100100.66
2022-08-03T07:50:24.131Z,100099.69
2022-08-03T07:52:53.759Z,100096.69
2022-08-03T07:55:23.550Z,100095.22
2022-08-03T07:58:02.358Z,100104.59
2022-08-03T08:00:32.325Z,100116.25
2022-08-03T08:03:00.827Z,100117.22
2022-08-03T08:05:29.861Z,100123.19
2022-08-03T08:07:58.471Z,100112.78
2022-08-03T08:10:27.045Z,100118.75
2022-08-03T08:12:55.676Z,100116.44
2022-08-03T08:15:24.335Z,100120.22
2022-08-03T08:17:56.575Z,100122.84
2022-08-03T08:20:30.797Z,100117.44
2022-08-03T08:23:02.808Z,100119.94
2022-08-03T08:25:33.178Z,100129.13
2022-08-03T08:28:29.235Z,100120.25
2022-08-03T08:30:52.576Z,100120.09
2022-08-03T08:33:23.955Z,100120.81
2022-08-03T08:35:54.727Z,100119.84
2022-08-03T08:38:23.907Z,100125.81
2022-08-03T08:40:52.633Z,100122.75
2022-08-03T08:43:21.127Z,100126.81
2022-08-03T08:45:51.545Z,100133.28
2022-08-03T08:48:25.915Z,100132.75
2022-08-03T08:50:55.572Z,100138.16
2022-08-03T08:53:27.241Z,100135.66
2022-08-03T08:56:01.493Z,100131.22
2022-08-03T08:58:36.124Z,100135.38
2022-08-03T09:01:04.884Z,100132.47
2022-08-03T09:03:36.572Z,100133.31
2022-08-03T09:06:05.585Z,100135.94
2022-08-03T09:08:34.366Z,100137.63
2022-08-03T09:11:02.856Z,100147.59
2022-08-03T09:13:31.884Z,100142.59
2022-08-03T09:16:14.569Z,100145.91
2022-08-03T09:18:46.113Z,100129.72
2022-08-03T09:21:36.047Z,100128.91
2022-08-03T09:24:13.029Z,100130.41
2022-08-03T09:26:54.919Z,100134.44
2022-08-03T09:29:24.099Z,100125.81
2022-08-03T09:32:03.186Z,100122.22
2022-08-03T09:34:33.710Z,100118.38
2022-08-03T09:37:02.093Z,100121.03
2022-08-03T09:39:41.678Z,100128.06
2022-08-03T09:42:14.856Z,100124.06
2022-08-03T09:44:45.649Z,100127.66
2022-08-03T09:47:15.493Z,100133.75
2022-08-03T09:49:59.116Z,100129.28
2022-08-03T09:52:38.651Z,100137.97
2022-08-03T09:56:32.689Z,100133.94
2022-08-03T09:58:09.353Z,100129.91
2022-08-03T10:00:55.229Z,100133.63
2022-08-03T10:03:24.717Z,100135.44
2022-08-03T10:05:59.539Z,100130.19
2022-08-03T10:08:28.758Z,100142.13
2022-08-03T10:10:58.839Z,100140.75
2022-08-03T10:13:27.378Z,100136.75
2022-08-03T10:16:22.546Z,100146.44
2022-08-03T10:18:44.326Z,100139.47
2022-08-03T10:21:18.584Z,100132.94
2022-08-03T10:23:48.129Z,100141.28
2022-08-03T10:26:20.654Z,100141.81
2022-08-03T10:28:53.505Z,100141.91
2022-08-03T10:31:23.875Z,100148.41
2022-08-03T10:33:53.914Z,100140.78
2022-08-03T10:36:26.206Z,100147.97
2022-08-03T10:38:56.734Z,100157.66
2022-08-03T10:41:32.605Z,100148.69
2022-08-03T10:44:06.919Z,100160.44
2022-08-03T10:46:41.478Z,100161.06
2022-08-03T10:49:15.900Z,100156.78
2022-08-03T10:51:46.864Z,100164.28
2022-08-03T10:54:56.937Z,100165.81
2022-08-03T10:58:00.746Z,100168.72
2022-08-03T11:00:30.629Z,100171.34
2022-08-03T11:03:10.775Z,100178.41
2022-08-03T11:05:43.803Z,100191.00
2022-08-03T11:08:29.467Z,100190.28
2022-08-03T11:11:00.956Z,100186.56
2022-08-03T11:13:34.129Z,100190.75
2022-08-03T11:16:21.967Z,100196.25
2022-08-03T11:18:58.761Z,100190.19
2022-08-03T11:22:00.440Z,100193.38
2022-08-03T11:25:04.823Z,100193.94
2022-08-03T11:27:35.095Z,100195.81
2022-08-03T11:30:08.006Z,100193.59
2022-08-03T11:32:58.526Z,100190.94
2022-08-03T11:35:29.293Z,100191.13
2022-08-03T11:38:08.798Z,100191.44
2022-08-03T11:40:41.556Z,100194.47
2022-08-03T11:43:11.324Z,100199.16
2022-08-03T11:45:40.135Z,100186.94
2022-08-03T11:48:17.119Z,100189.56
2022-08-03T11:50:46.614Z,100187.81
2022-08-03T11:53:20.539Z,100191.13
2022-08-03T11:55:50.379Z,100190.75
2022-08-03T11:59:03.379Z,100192.88
2022-08-03T12:02:00.426Z,100194.38
2022-08-03T12:04:30.045Z,100200.63
2022-08-03T12:07:02.104Z,100221.94
2022-08-03T12:09:30.659Z,100222.94
2022-08-03T12:12:01.386Z,100226.38
2022-08-03T12:14:49.872Z,100234.28
2022-08-03T12:17:21.334Z,100232.50
2022-08-03T12:19:50.204Z,100238.59
2022-08-03T12:22:32.154Z,100241.09
2022-08-03T12:25:00.655Z,100230.31
2022-08-03T12:27:30.874Z,100229.34
2022-08-03T12:30:01.803Z,100235.44
2022-08-03T12:32:31.035Z,100234.50
2022-08-03T12:35:01.956Z,100235.31
2022-08-03T12:37:31.234Z,100246.53
2022-08-03T12:40:10.379Z,100238.38
2022-08-03T12:42:41.485Z,100238.28
2022-08-03T12:45:24.094Z,100238.38
2022-08-03T12:47:55.225Z,100237.56
2022-08-03T12:50:29.060Z,100241.84
2022-08-03T12:52:58.404Z,100241.03
2022-08-03T12:55:56.268Z,100241.03
2022-08-03T12:58:34.682Z,100240.06
2022-08-03T13:01:09.499Z,100234.81
2022-08-03T13:03:49.890Z,100243.41
2022-08-03T13:06:21.806Z,100243.28
2022-08-03T13:08:52.095Z,100245.91
2022-08-03T13:11:53.648Z,100243.03
2022-08-03T13:14:19.362Z,100244.69
2022-08-03T13:16:48.400Z,100243.72
2022-08-03T13:19:16.937Z,100246.22
2022-08-03T13:22:01.384Z,100246.34
2022-08-03T13:24:34.282Z,100245.66
2022-08-03T13:28:01.908Z,100249.22
2022-08-03T13:30:02.500Z,100261.00
2022-08-03T13:32:31.254Z,100256.66
2022-08-03T13:34:59.706Z,100260.69
2022-08-03T13:37:28.417Z,100252.38
2022-08-03T13:40:23.706Z,100257.03
2022-08-03T13:43:44.855Z,100250.41
2022-08-03T13:46:16.365Z,100246.38
2022-08-03T13:48:44.872Z,100245.22
2022-08-03T13:51:22.361Z,100247.59
2022-08-03T13:53:51.790Z,100248.28
2022-08-03T13:56:27.208Z,100244.81
2022-08-03T13:59:11.611Z,100243.00
2022-08-03T14:02:01.685Z,100248.41
2022-08-03T14:04:30.395Z,100250.22
2022-08-03T14:06:59.018Z,100251.88
2022-08-03T14:09:27.485Z,100249.78
2022-08-03T14:12:08.356Z,100250.84
2022-08-03T14:14:37.658Z,100251.91
2022-08-03T14:17:07.585Z,100255.53
2022-08-03T14:19:49.928Z,100244.88
2022-08-03T14:22:25.315Z,100253.72
2022-08-03T14:24:57.061Z,100249.56
2022-08-03T14:27:26.701Z,100254.69
2022-08-03T14:30:00.062Z,100250.97
2022-08-03T14:32:30.600Z,100250.97
2022-08-03T14:35:01.063Z,100252.91
2022-08-03T14:37:30.850Z,100254.13
2022-08-03T14:40:00.930Z,100256.19
2022-08-03T14:42:35.400Z,100250.09
2022-08-03T14:45:09.002Z,100254.50
2022-08-03T14:50:12.572Z,100246.03
2022-08-03T14:50:40.528Z,100254.66
2022-08-03T14:53:11.587Z,100257.41
2022-08-03T14:55:50.607Z,100258.38
2022-08-03T14:58:20.947Z,100254.91
2022-08-03T15:00:51.321Z,100245.34
2022-08-03T15:03:23.994Z,100247.00
2022-08-03T15:05:53.193Z,100251.75
2022-08-03T15:08:21.949Z,100248.97
2022-08-03T15:10:50.912Z,100240.44
2022-08-03T15:13:19.765Z,100235.84
2022-08-03T15:15:48.545Z,100239.13
2022-08-03T15:18:17.325Z,100238.97
2022-08-03T15:20:49.237Z,100235.50
2022-08-03T15:23:18.721Z,100236.91
2022-08-03T15:26:28.792Z,100237.72
2022-08-03T15:28:37.462Z,100229.72
2022-08-03T15:31:07.161Z,100233.19
2022-08-03T15:33:35.755Z,100231.38
2022-08-03T15:36:06.555Z,100239.16
2022-08-03T15:38:35.097Z,100239.16
2022-08-03T15:41:03.679Z,100237.34
2022-08-03T15:43:32.136Z,100240.56
2022-08-03T15:46:28.398Z,100239.72
2022-08-03T15:48:48.918Z,100241.38
2022-08-03T15:51:18.807Z,100246.66
2022-08-03T15:53:47.255Z,100245.56
2022-08-03T15:56:18.693Z,100252.91
2022-08-03T15:59:04.450Z,100251.81
2022-08-03T16:01:36.582Z,100252.66
2022-08-03T16:04:05.165Z,100252.66
2022-08-03T16:06:36.332Z,100251.09
2022-08-03T16:09:23.886Z,100255.53
2022-08-03T16:11:55.735Z,100257.09
2022-08-03T16:14:32.618Z,100255.00
2022-08-03T16:17:04.777Z,100246.00
2022-08-03T16:19:33.522Z,100249.22
2022-08-03T16:22:03.458Z,100248.69
2022-08-03T16:24:32.285Z,100235.09
2022-08-03T16:27:00.991Z,100232.06
2022-08-03T16:29:30.135Z,100243.72
2022-08-03T16:31:58.525Z,100243.69
2022-08-03T16:34:27.189Z,100242.56
2022-08-03T16:36:56.004Z,100249.50
2022-08-03T16:39:25.951Z,100247.56
2022-08-03T16:42:00.731Z,100253.69
2022-08-03T16:44:31.859Z,100255.66
2022-08-03T16:47:00.929Z,100250.66
2022-08-03T16:49:54.429Z,100256.88
2022-08-03T16:52:17.903Z,100260.13
2022-08-03T16:54:52.877Z,100268.06
2022-08-03T16:57:59.002Z,100266.38
2022-08-03T17:00:32.938Z,100259.47
2022-08-03T17:03:12.834Z,100270.13
2022-08-03T17:05:50.040Z,100282.47
2022-08-03T17:08:26.900Z,100286.19
2022-08-03T17:10:57.954Z,100291.34
2022-08-03T17:13:38.849Z,100297.31
2022-08-03T17:16:15.160Z,100292.88
2022-08-03T17:18:52.697Z,100292.19
2022-08-03T17:21:29.329Z,100295.91
2022-08-03T17:24:02.775Z,100300.47
2022-08-03T17:26:35.425Z,100294.38
2022-08-03T17:29:12.618Z,100287.16
2022-08-03T17:31:48.600Z,100289.91
2022-08-03T17:34:18.923Z,100295.34
2022-08-03T17:37:05.513Z,100302.41
2022-08-03T17:42:30.268Z,100288.53
2022-08-03T17:45:02.380Z,100290.44
2022-08-03T17:47:42.073Z,100297.66
2022-08-03T17:50:27.999Z,100296.94
2022-08-03T17:53:07.509Z,100308.47
2022-08-03T17:56:36.142Z,100304.38
2022-08-03T18:02:22.329Z,100321.41
2022-08-03T18:05:16.244Z,100324.19
2022-08-03T18:07:47.915Z,100325.84
2022-08-03T18:10:22.365Z,100325.00
2022-08-03T18:12:54.956Z,100323.22
2022-08-03T18:15:32.007Z,100323.34
2022-08-03T18:18:10.814Z,100326.09
2022-08-03T18:20:42.348Z,100327.19
2022-08-03T18:23:25.261Z,100326.63
2022-08-03T18:26:04.697Z,100336.31
2022-08-03T18:28:35.255Z,100342.69
2022-08-03T18:31:07.443Z,100341.00
2022-08-03T18:34:18.377Z,100343.75
2022-08-03T18:36:31.829Z,100348.34
2022-08-03T18:39:01.731Z,100349.44
2022-08-03T18:41:33.604Z,100350.50
2022-08-03T18:44:08.265Z,100364.66
2022-08-03T18:46:49.448Z,100362.25
2022-08-03T18:49:30.384Z,100361.44
2022-08-03T18:52:12.172Z,100366.09
2022-08-03T18:55:02.542Z,100371.50
2022-08-03T18:57:46.420Z,100378.56
2022-08-03T19:00:17.575Z,100383.13
2022-08-03T19:03:02.614Z,100384.19
2022-08-03T19:05:56.529Z,100380.03
2022-08-03T19:08:48.317Z,100386.38
2022-08-03T19:11:28.149Z,100382.31
2022-08-03T19:13:59.809Z,100381.47
2022-08-03T19:16:34.303Z,100380.78
2022-08-03T19:19:04.604Z,100380.88
2022-08-03T19:21:36.454Z,100390.59
2022-08-03T19:24:10.037Z,100386.28
2022-08-03T19:26:39.903Z,100403.03
2022-08-03T19:29:15.156Z,100397.78
2022-08-03T19:32:02.715Z,100406.03
2022-08-03T19:34:33.089Z,100407.13
2022-08-03T19:37:02.470Z,100404.63
2022-08-03T19:39:31.695Z,100418.72
2022-08-03T19:42:12.221Z,100414.53
2022-08-03T19:44:57.199Z,100411.22
2022-08-03T19:47:31.326Z,100415.66
2022-08-03T19:50:10.406Z,100412.41
2022-08-03T19:52:45.314Z,100410.97
2022-08-03T19:55:13.781Z,100413.84
2022-08-03T20:00:38.209Z,100416.81
2022-08-03T20:04:08.654Z,100426.63
2022-08-03T20:07:08.014Z,100433.94
2022-08-03T20:09:54.346Z,100435.81
2022-08-03T20:12:28.571Z,100437.75
2022-08-03T20:14:58.797Z,100443.97
2022-08-03T20:17:54.119Z,100444.94
2022-08-03T20:20:21.277Z,100450.44
2022-08-03T20:22:57.813Z,100460.13
2022-08-03T20:25:38.934Z,100454.25
2022-08-03T20:28:30.390Z,100459.75
2022-08-03T20:30:59.874Z,100473.00
2022-08-03T20:33:46.358Z,100468.81
2022-08-03T20:36:17.900Z,100469.78
2022-08-03T20:38:48.390Z,100467.41
2022-08-03T20:41:17.626Z,100476.34
2022-08-03T20:43:46.486Z,100479.22
2022-08-03T20:46:32.745Z,100477.69
2022-08-03T20:49:07.696Z,100475.06
2022-08-03T20:51:50.697Z,100475.28
2022-08-03T20:54:30.853Z,100485.06
2022-08-03T20:57:04.313Z,100485.91
2022-08-03T20:59:50.407Z,100484.34
2022-08-03T21:02:29.071Z,100488.91
2022-08-03T21:04:57.886Z,100491.75
2022-08-03T21:08:03.839Z,100500.59
2022-08-03T21:10:20.335Z,100494.84
2022-08-03T21:13:05.867Z,100311.59
2022-08-03T21:13:10.447Z,100413.13
2022-08-03T21:13:15.501Z,100499.38
2022-08-03T21:16:11.246Z,100492.69
2022-08-03T21:18:44.030Z,100490.97
2022-08-03T21:21:16.266Z,100497.34
2022-08-03T21:23:48.081Z,100490.97
2022-08-03T21:26:20.250Z,100501.03
2022-08-03T21:28:51.566Z,100504.41
2022-08-03T21:31:26.231Z,100509.06
2022-08-03T21:33:57.855Z,100509.88
2022-08-03T21:36:28.195Z,100514.41
2022-08-03T21:39:00.998Z,100511.91
2022-08-03T21:41:32.516Z,100513.72
2022-08-03T21:44:01.763Z,100513.81
2022-08-03T21:46:34.897Z,100515.72
2022-08-03T21:50:06.776Z,100522.78
2022-08-03T21:52:15.206Z,100527.19
2022-08-03T21:55:07.733Z,100537.69
2022-08-03T21:57:46.676Z,100531.84
2022-08-03T22:00:21.932Z,100535.28
2022-08-03T22:02:56.183Z,100539.72
2022-08-03T22:05:42.982Z,100536.25
2022-08-03T22:08:18.105Z,100553.81
2022-08-03T22:10:49.306Z,100552.16
2022-08-03T22:13:43.251Z,100555.00
2022-08-03T22:16:15.456Z,100562.91
2022-08-03T22:18:47.425Z,100563.81
2022-08-03T22:21:35.612Z,100568.38
2022-08-03T22:24:08.456Z,100567.72
2022-08-03T22:27:04.678Z,100572.13
2022-08-03T22:29:40.632Z,100569.72
2022-08-03T22:32:13.966Z,100573.22
2022-08-03T22:34:50.855Z,100578.56
2022-08-03T22:37:24.450Z,100576.91
2022-08-03T22:39:59.835Z,100586.78
2022-08-03T22:42:34.390Z,100584.88
2022-08-03T22:45:07.386Z,100587.63
2022-08-03T22:47:37.766Z,100580.91
2022-08-03T22:50:31.495Z,100589.00
2022-08-03T22:52:58.817Z,100587.53
2022-08-03T22:55:29.130Z,100600.69
2022-08-03T22:58:14.016Z,100595.56
2022-08-03T23:01:06.935Z,100599.03
2022-08-03T23:06:53.167Z,100607.13
2022-08-03T23:12:40.625Z,100608.78
2022-08-03T23:15:11.486Z,100613.13
2022-08-03T23:17:57.431Z,100616.66
2022-08-03T23:20:29.015Z,100610.59
2022-08-03T23:22:58.116Z,100615.22
2022-08-03T23:25:27.096Z,100613.56
2022-08-03T23:28:05.461Z,100615.22
2022-08-03T23:30:36.525Z,100620.47
2022-08-03T23:33:08.075Z,100621.53
2022-08-03T23:36:18.817Z,100622.47
2022-08-03T23:38:44.928Z,100633.09
2022-08-03T23:41:15.055Z,100638.13
2022-08-03T23:43:52.042Z,100639.91
2022-08-03T23:46:23.395Z,100641.69
2022-08-03T23:48:53.690Z,100639.28
2022-08-03T23:51:38.185Z,100646.97
2022-08-03T23:54:16.546Z,100643.75
2022-08-03T23:56:55.455Z,100645.00
2022-08-03T23:59:30.577Z,100643.34
